createdAt,value
2022-08-14T00:01:39.100Z,23.20
2022-08-14T00:04:45.431Z,23.21
2022-08-14T00:07:49.648Z,23.22
2022-08-14T00:10:53.421Z,23.24
2022-08-14T00:13:56.063Z,23.22
2022-08-14T00:16:58.611Z,23.02
2022-08-14T00:20:04.312Z,23.18
2022-08-14T00:23:14.548Z,23.12
2022-08-14T00:26:22.977Z,23.17
2022-08-14T00:29:27.293Z,23.19
2022-08-14T00:32:55.668Z,23.09
2022-08-14T00:36:35.837Z,23.15
2022-08-14T00:39:18.065Z,22.83
2022-08-14T00:42:56.029Z,22.98
2022-08-14T00:45:52.552Z,23.08
2022-08-14T00:48:55.343Z,23.03
2022-08-14T00:52:00.959Z,22.99
2022-08-14T00:55:05.902Z,22.85
2022-08-14T00:58:48.544Z,22.92
2022-08-14T01:01:51.665Z,22.80
2022-08-14T01:04:58.164Z,22.77
2022-08-14T01:08:01.230Z,22.59
2022-08-14T01:11:07.348Z,22.58
2022-08-14T01:14:26.005Z,22.73
2022-08-14T01:17:49.708Z,22.76
2022-08-14T01:21:06.225Z,22.43
2022-08-14T01:24:15.059Z,22.81
2022-08-14T01:27:25.701Z,22.67
2022-08-14T01:30:36.580Z,22.49
2022-08-14T01:33:59.636Z,22.56
2022-08-14T01:37:08.836Z,22.82
2022-08-14T01:40:15.493Z,22.81
2022-08-14T01:43:26.598Z,22.71
2022-08-14T01:46:33.258Z,22.73
2022-08-14T01:49:58.912Z,22.69
2022-08-14T01:53:02.286Z,22.48
2022-08-14T01:56:12.213Z,22.65
2022-08-14T01:59:22.135Z,22.61
2022-08-14T02:02:24.770Z,22.56
2022-08-14T02:05:29.396Z,22.50
2022-08-14T02:08:38.133Z,22.44
2022-08-14T02:11:57.511Z,22.38
2022-08-14T02:15:01.621Z,22.35
2022-08-14T02:18:04.379Z,22.22
2022-08-14T02:21:07.088Z,22.11
2022-08-14T02:24:40.006Z,22.28
2022-08-14T02:28:22.294Z,22.22
2022-08-14T02:30:56.358Z,22.26
2022-08-14T02:34:22.128Z,22.21
2022-08-14T02:37:47.487Z,21.71
2022-08-14T02:41:08.752Z,22.15
2022-08-14T02:44:13.149Z,21.97
2022-08-14T02:47:20.770Z,21.93
2022-08-14T02:50:27.264Z,22.09
2022-08-14T02:53:29.965Z,22.08
2022-08-14T02:57:13.778Z,22.05
2022-08-14T02:59:58.309Z,22.03
2022-08-14T03:03:02.685Z,22.02
2022-08-14T03:06:10.832Z,21.99
2022-08-14T03:09:13.451Z,21.74
2022-08-14T03:12:26.968Z,21.91
2022-08-14T03:15:38.511Z,21.87
2022-08-14T03:18:44.515Z,21.81
2022-08-14T03:21:47.165Z,21.84
2022-08-14T03:24:55.660Z,21.79
2022-08-14T03:28:02.741Z,21.78
2022-08-14T03:31:08.401Z,21.73
2022-08-14T03:34:24.759Z,21.71
2022-08-14T03:39:10.637Z,21.60
2022-08-14T03:41:01.339Z,21.37
2022-08-14T03:45:20.036Z,21.45
2022-08-14T03:47:46.116Z,21.32
2022-08-14T03:50:53.783Z,21.26
2022-08-14T03:53:59.759Z,21.00
2022-08-14T03:57:03.406Z,21.18
2022-08-14T04:00:08.938Z,21.16
2022-08-14T04:03:24.156Z,21.00
2022-08-14T04:06:28.269Z,21.10
2022-08-14T04:09:34.963Z,21.13
2022-08-14T04:12:37.541Z,21.13
2022-08-14T04:15:56.592Z,20.99
2022-08-14T04:19:04.548Z,21.09
2022-08-14T04:22:07.371Z,21.04
2022-08-14T04:25:10.519Z,21.06
2022-08-14T04:29:07.409Z,21.06
2022-08-14T04:33:10.370Z,21.04
2022-08-14T04:35:07.624Z,21.01
2022-08-14T04:38:36.726Z,20.94
2022-08-14T04:41:59.999Z,20.60
2022-08-14T04:45:03.337Z,20.89
2022-08-14T04:48:38.782Z,21.04
2022-08-14T04:51:46.690Z,21.23
2022-08-14T04:54:59.481Z,22.01
2022-08-14T04:58:02.420Z,22.66
2022-08-14T05:01:12.825Z,22.94
2022-08-14T05:04:22.868Z,23.80
2022-08-14T05:07:46.355Z,24.29
2022-08-14T05:10:51.189Z,24.56
2022-08-14T05:14:16.762Z,25.03
2022-08-14T05:17:16.420Z,25.16
2022-08-14T05:21:56.575Z,25.48
2022-08-14T05:23:43.208Z,25.78
2022-08-14T05:26:48.845Z,25.58
2022-08-14T05:29:52.915Z,25.70
2022-08-14T05:32:56.720Z,25.80
2022-08-14T05:36:01.171Z,25.47
2022-08-14T05:39:05.202Z,24.43
2022-08-14T05:42:22.399Z,24.10
2022-08-14T05:45:29.731Z,23.77
2022-08-14T05:48:38.240Z,23.44
2022-08-14T05:51:46.917Z,23.30
2022-08-14T05:54:50.812Z,23.33
2022-08-14T05:57:57.841Z,23.32
2022-08-14T06:01:02.259Z,23.16
2022-08-14T06:04:05.355Z,23.07
2022-08-14T06:07:08.141Z,23.23
2022-08-14T06:10:13.512Z,23.27
2022-08-14T06:13:21.797Z,23.21
2022-08-14T06:16:24.366Z,23.28
2022-08-14T06:19:27.360Z,23.22
2022-08-14T06:22:32.357Z,23.27
2022-08-14T06:25:38.805Z,23.28
2022-08-14T06:28:41.473Z,23.21
2022-08-14T06:31:48.062Z,23.36
2022-08-14T06:35:12.256Z,23.44
2022-08-14T06:38:17.437Z,23.32
2022-08-14T06:41:57.126Z,23.32
2022-08-14T06:44:45.037Z,23.29
2022-08-14T06:47:48.075Z,23.39
2022-08-14T06:50:51.633Z,23.54
2022-08-14T06:53:54.206Z,23.74
2022-08-14T06:56:58.779Z,23.87
2022-08-14T07:00:01.359Z,23.88
2022-08-14T07:03:21.867Z,23.85
2022-08-14T07:06:46.423Z,23.91
2022-08-14T07:09:50.978Z,24.08
2022-08-14T07:13:03.768Z,24.20
2022-08-14T07:16:07.587Z,24.19
2022-08-14T07:19:10.342Z,24.16
2022-08-14T07:22:17.417Z,24.45
2022-08-14T07:25:32.280Z,24.49
2022-08-14T07:28:43.071Z,24.72
2022-08-14T07:31:46.453Z,24.80
